createdAt,value
2023-02-16T00:11:34.305Z,-1.00
2023-02-16T00:26:44.264Z,-1.80
2023-02-16T00:31:47.015Z,-1.60
2023-02-16T00:42:04.378Z,-1.50
2023-02-16T00:47:13.004Z,-1.30
2023-02-16T00:52:34.370Z,-1.30
2023-02-16T00:57:41.025Z,-1.30
2023-02-16T01:02:44.902Z,-1.30
2023-02-16T01:18:17.442Z,-1.70
2023-02-16T01:23:20.008Z,-1.80
2023-02-16T01:28:24.787Z,-1.60
2023-02-16T01:33:27.331Z,-1.80
2023-02-16T01:38:29.969Z,-2.10
2023-02-16T01:43:45.925Z,-2.10
2023-02-16T01:53:54.991Z,-2.20
2023-02-16T01:59:04.647Z,-2.40
2023-02-16T02:05:07.138Z,-2.50
2023-02-16T02:10:32.793Z,-2.10
2023-02-16T02:21:09.960Z,-1.80
2023-02-16T02:26:18.725Z,-1.70
2023-02-16T02:31:37.073Z,-1.70
2023-02-16T02:37:19.502Z,-1.60
2023-02-16T02:42:40.866Z,-1.50
2023-02-16T02:47:46.820Z,-1.40
2023-02-16T03:03:44.244Z,-1.30
2023-02-16T03:08:54.771Z,-1.50
2023-02-16T03:14:08.999Z,-1.40
2023-02-16T03:19:32.579Z,-1.40
2023-02-16T03:24:53.616Z,-1.60
2023-02-16T03:29:57.898Z,-1.60
2023-02-16T03:40:25.687Z,-1.60
2023-02-16T03:45:28.900Z,-1.70
2023-02-16T03:55:37.277Z,-1.80
2023-02-16T04:00:40.451Z,-1.70
2023-02-16T04:36:02.626Z,-1.80
2023-02-16T04:46:08.921Z,-1.80
2023-02-16T04:56:14.602Z,-2.20
2023-02-16T05:01:22.238Z,-2.10
2023-02-16T05:16:49.867Z,-2.20
2023-02-16T05:52:10.620Z,-1.90
2023-02-16T06:02:16.151Z,-2.10
2023-02-16T06:42:41.298Z,-1.40
2023-02-16T07:02:53.714Z,-0.50
2023-02-16T07:12:59.641Z,0.00
2023-02-16T07:23:05.244Z,0.50
2023-02-16T07:28:07.949Z,0.80
2023-02-16T07:38:14.276Z,1.30
2023-02-16T07:53:25.643Z,2.00
2023-02-16T08:08:36.084Z,2.50
2023-02-16T08:23:47.944Z,2.70
2023-02-16T08:28:51.219Z,2.70
2023-02-16T08:33:55.060Z,2.90
2023-02-16T08:44:02.409Z,3.00
2023-02-16T08:49:06.220Z,3.20
2023-02-16T08:54:09.362Z,3.30
2023-02-16T09:04:15.985Z,3.30
2023-02-16T09:14:23.063Z,3.60
2023-02-16T09:19:26.082Z,3.80
2023-02-16T09:29:33.086Z,4.20
2023-02-16T09:34:37.242Z,4.30
2023-02-16T09:39:39.888Z,4.40
2023-02-16T09:44:49.357Z,4.60
2023-02-16T09:49:56.547Z,4.70
2023-02-16T09:55:01.028Z,4.70
2023-02-16T10:00:34.123Z,4.90
2023-02-16T10:06:31.174Z,5.00
2023-02-16T10:17:01.182Z,5.60
2023-02-16T10:22:08.370Z,5.40
2023-02-16T10:27:16.552Z,5.50
2023-02-16T10:37:49.431Z,5.80
2023-02-16T10:43:01.936Z,5.90
2023-02-16T10:48:04.771Z,5.90
2023-02-16T10:53:15.800Z,5.80
2023-02-16T10:58:27.027Z,5.90
2023-02-16T11:03:33.500Z,6.10
2023-02-16T11:08:54.270Z,6.10
2023-02-16T11:14:09.501Z,6.20
2023-02-16T11:19:24.434Z,6.40
2023-02-16T11:24:38.316Z,6.60
2023-02-16T11:29:41.536Z,6.60
2023-02-16T11:34:51.616Z,6.70
2023-02-16T11:39:59.793Z,6.90
2023-02-16T11:45:05.277Z,7.00
2023-02-16T11:50:32.498Z,7.30
2023-02-16T11:55:36.672Z,7.30
2023-02-16T12:00:44.930Z,7.20
2023-02-16T12:06:15.136Z,7.20
2023-02-16T12:11:37.038Z,7.30
2023-02-16T12:16:54.883Z,7.30
2023-02-16T12:22:07.328Z,7.10
2023-02-16T12:27:41.882Z,7.20
2023-02-16T12:33:08.078Z,7.00
2023-02-16T12:38:22.847Z,7.00
2023-02-16T12:43:28.182Z,7.00
2023-02-16T12:48:53.966Z,7.10
2023-02-16T12:54:04.927Z,7.20
2023-02-16T12:59:37.604Z,7.30
2023-02-16T13:04:52.114Z,7.30
2023-02-16T13:10:07.171Z,7.30
2023-02-16T13:15:14.842Z,7.40
2023-02-16T13:20:20.182Z,7.40
2023-02-16T13:26:01.290Z,7.50
2023-02-16T13:31:16.144Z,7.40
2023-02-16T13:36:43.315Z,7.50
2023-02-16T13:42:24.693Z,7.50
2023-02-16T13:47:37.144Z,7.40
2023-02-16T13:52:42.084Z,7.30
2023-02-16T13:57:50.603Z,7.40
2023-02-16T14:02:58.646Z,7.40
2023-02-16T14:08:23.556Z,7.50
2023-02-16T14:13:30.949Z,7.40
2023-02-16T14:19:21.290Z,7.40
2023-02-16T14:24:33.841Z,7.40
2023-02-16T14:29:59.673Z,7.20
2023-02-16T14:35:23.700Z,7.00
2023-02-16T14:40:35.395Z,6.90
2023-02-16T14:45:59.966Z,6.80
2023-02-16T14:51:39.774Z,6.60
2023-02-16T14:56:52.935Z,6.40
2023-02-16T15:01:55.954Z,6.50
2023-02-16T15:07:05.168Z,6.30
2023-02-16T15:12:22.280Z,6.20
2023-02-16T15:17:37.483Z,6.00
2023-02-16T15:22:52.758Z,5.90
2023-02-16T15:28:05.936Z,5.90
2023-02-16T15:33:36.346Z,5.60
2023-02-16T15:38:43.366Z,5.30
2023-02-16T15:43:52.126Z,5.20
2023-02-16T15:54:28.795Z,4.80
2023-02-16T15:59:43.217Z,4.60
2023-02-16T16:04:55.506Z,4.30
2023-02-16T16:15:02.638Z,3.80
2023-02-16T16:20:27.565Z,3.70
2023-02-16T16:25:37.003Z,3.40
2023-02-16T16:30:45.388Z,3.20
2023-02-16T16:35:49.702Z,3.00
2023-02-16T16:40:55.607Z,2.70
2023-02-16T16:46:31.105Z,2.60
2023-02-16T16:56:40.131Z,2.20
2023-02-16T17:37:10.885Z,1.60
2023-02-16T17:52:20.804Z,1.60
2023-02-16T18:42:52.609Z,1.30
2023-02-16T18:58:03.993Z,1.20
2023-02-16T19:13:14.098Z,1.40
2023-02-16T19:28:22.961Z,1.20
2023-02-16T19:33:25.644Z,1.10
2023-02-16T19:53:41.647Z,1.30
2023-02-16T20:03:48.970Z,1.10
2023-02-16T20:08:52.719Z,1.10
2023-02-16T20:13:56.669Z,1.30
2023-02-16T20:24:05.479Z,1.20
2023-02-16T20:29:09.822Z,1.20
2023-02-16T20:49:21.964Z,1.40
2023-02-16T21:55:39.061Z,2.00
2023-02-16T22:05:44.966Z,2.40
2023-02-16T22:31:07.204Z,2.80
2023-02-16T22:36:13.931Z,2.90
2023-02-16T22:41:16.762Z,3.00
2023-02-16T23:01:31.452Z,3.30
2023-02-16T23:06:36.608Z,3.10
2023-02-16T23:16:47.586Z,3.00
2023-02-16T23:21:50.540Z,3.10
2023-02-16T23:42:02.352Z,3.20
2023-02-16T23:47:04.947Z,3.10
2023-02-16T23:57:11.035Z,3.00
